sensor_id;sensor_type;location;lat;lon;timestamp;pressure;altitude;pressure_sealevel;temperature;humidity
68230;BME280;55048;52.220;5.160;2023-07-31T00:01:54;100775.88;;;17.75;99.90
68230;BME280;55048;52.220;5.160;2023-07-31T00:04:19;100795.28;;;17.96;100.00
68230;BME280;55048;52.220;5.160;2023-07-31T00:06:45;100575.09;;;16.65;100.00
68230;BME280;55048;52.220;5.160;2023-07-31T00:09:10;100823.03;;;18.16;100.00
68230;BME280;55048;52.220;5.160;2023-07-31T00:11:36;100813.47;;;18.28;100.00
68230;BME280;55048;52.220;5.160;2023-07-31T00:14:01;100795.34;;;18.15;100.00
68230;BME280;55048;52.220;5.160;2023-07-31T00:16:27;100816.75;;;18.25;100.00
68230;BME280;55048;52.220;5.160;2023-07-31T00:18:52;100727.91;;;17.82;100.00
68230;BME280;55048;52.220;5.160;2023-07-31T00:21:18;100761.78;;;18.07;100.00
68230;BME280;55048;52.220;5.160;2023-07-31T00:23:43;100769.84;;;18.07;100.00
68230;BME280;55048;52.220;5.160;2023-07-31T00:26:09;100695.63;;;17.58;100.00
68230;BME280;55048;52.220;5.160;2023-07-31T00:28:34;100816.31;;;18.37;100.00
68230;BME280;55048;52.220;5.160;2023-07-31T00:30:59;100758.75;;;18.14;100.00
68230;BME280;55048;52.220;5.160;2023-07-31T00:33:25;100659.03;;;17.57;100.00
68230;BME280;55048;52.220;5.160;2023-07-31T00:35:50;100769.38;;;18.24;100.00
68230;BME280;55048;52.220;5.160;2023-07-31T00:38:16;100727.41;;;17.99;100.00
68230;BME280;55048;52.220;5.160;2023-07-31T00:40:41;100737.97;;;17.96;100.00
68230;BME280;55048;52.220;5.160;2023-07-31T00:43:06;100755.22;;;18.14;100.00
68230;BME280;55048;52.220;5.160;2023-07-31T00:45:34;100673.81;;;17.60;100.00
68230;BME280;55048;52.220;5.160;2023-07-31T00:47:59;100749.41;;;18.06;100.00
68230;BME280;55048;52.220;5.160;2023-07-31T00:50:25;100701.63;;;17.74;100.00
68230;BME280;55048;52.220;5.160;2023-07-31T00:52:51;100793.25;;;18.31;100.00
68230;BME280;55048;52.220;5.160;2023-07-31T00:55:17;100685.66;;;17.59;100.00
68230;BME280;55048;52.220;5.160;2023-07-31T00:57:45;100775.69;;;18.15;100.00
68230;BME280;55048;52.220;5.160;2023-07-31T01:00:11;100760.47;;;18.05;100.00
68230;BME280;55048;52.220;5.160;2023-07-31T01:02:36;100779.97;;;18.16;100.00
68230;BME280;55048;52.220;5.160;2023-07-31T01:05:03;100736.41;;;17.90;100.00
68230;BME280;55048;52.220;5.160;2023-07-31T01:07:52;100702.84;;;17.63;100.00
68230;BME280;55048;52.220;5.160;2023-07-31T01:10:27;100805.16;;;18.25;100.00
68230;BME280;55048;52.220;5.160;2023-07-31T01:12:56;100800.59;;;18.25;100.00
68230;BME280;55048;52.220;5.160;2023-07-31T01:15:22;100751.75;;;17.89;100.00
68230;BME280;55048;52.220;5.160;2023-07-31T01:17:48;100718.88;;;17.73;100.00
68230;BME280;55048;52.220;5.160;2023-07-31T01:20:24;100781.88;;;18.15;100.00
68230;BME280;55048;52.220;5.160;2023-07-31T01:31:09;100764.59;;;17.97;100.00
68230;BME280;55048;52.220;5.160;2023-07-31T01:33:37;100744.50;;;17.90;100.00
68230;BME280;55048;52.220;5.160;2023-07-31T01:36:03;100653.16;;;17.31;100.00
68230;BME280;55048;52.220;5.160;2023-07-31T01:38:29;100570.69;;;16.79;100.00
68230;BME280;55048;52.220;5.160;2023-07-31T01:40:54;100722.00;;;17.80;100.00
68230;BME280;55048;52.220;5.160;2023-07-31T01:43:20;100789.09;;;18.20;100.00
68230;BME280;55048;52.220;5.160;2023-07-31T01:45:46;100771.19;;;18.10;100.00
68230;BME280;55048;52.220;5.160;2023-07-31T01:48:11;100736.94;;;17.92;100.00
68230;BME280;55048;52.220;5.160;2023-07-31T01:50:37;100773.00;;;18.15;100.00
68230;BME280;55048;52.220;5.160;2023-07-31T01:53:02;100741.25;;;17.93;100.00
68230;BME280;55048;52.220;5.160;2023-07-31T01:55:27;100709.59;;;17.84;100.00
68230;BME280;55048;52.220;5.160;2023-07-31T01:57:53;100714.09;;;17.89;100.00
68230;BME280;55048;52.220;5.160;2023-07-31T02:00:19;100764.50;;;18.26;100.00
68230;BME280;55048;52.220;5.160;2023-07-31T02:02:44;100721.31;;;17.94;100.00
68230;BME280;55048;52.220;5.160;2023-07-31T02:05:10;100700.47;;;17.80;100.00
68230;BME280;55048;52.220;5.160;2023-07-31T02:07:36;100682.25;;;17.77;100.00
68230;BME280;55048;52.220;5.160;2023-07-31T02:10:02;100754.03;;;18.25;100.00
68230;BME280;55048;52.220;5.160;2023-07-31T02:12:27;100694.41;;;17.94;100.00
68230;BME280;55048;52.220;5.160;2023-07-31T02:14:55;100669.00;;;17.81;100.00
68230;BME280;55048;52.220;5.160;2023-07-31T02:17:21;100712.53;;;18.07;100.00
68230;BME280;55048;52.220;5.160;2023-07-31T02:19:46;100727.75;;;18.17;100.00
68230;BME280;55048;52.220;5.160;2023-07-31T02:22:12;100656.41;;;17.76;100.00
68230;BME280;55048;52.220;5.160;2023-07-31T02:24:37;100707.94;;;18.07;100.00
68230;BME280;55048;52.220;5.160;2023-07-31T02:27:03;100685.25;;;17.95;100.00
68230;BME280;55048;52.220;5.160;2023-07-31T02:29:28;100618.56;;;17.49;100.00
68230;BME280;55048;52.220;5.160;2023-07-31T02:31:54;100623.09;;;17.53;100.00
68230;BME280;55048;52.220;5.160;2023-07-31T02:34:19;100652.81;;;17.62;100.00
68230;BME280;55048;52.220;5.160;2023-07-31T02:36:45;100637.81;;;17.56;100.00
68230;BME280;55048;52.220;5.160;2023-07-31T02:39:11;100706.69;;;18.00;100.00
68230;BME280;55048;52.220;5.160;2023-07-31T02:41:36;100613.53;;;17.42;100.00
68230;BME280;55048;52.220;5.160;2023-07-31T02:44:01;100698.25;;;17.88;100.00
68230;BME280;55048;52.220;5.160;2023-07-31T02:46:27;100693.59;;;17.93;100.00
68230;BME280;55048;52.220;5.160;2023-07-31T02:48:52;100506.31;;;16.69;100.00
68230;BME280;55048;52.220;5.160;2023-07-31T02:51:18;100643.78;;;17.77;100.00
68230;BME280;55048;52.220;5.160;2023-07-31T02:53:43;100692.09;;;18.06;100.00
68230;BME280;55048;52.220;5.160;2023-07-31T02:56:09;100665.91;;;17.93;100.00
68230;BME280;55048;52.220;5.160;2023-07-31T02:58:34;100653.72;;;17.76;100.00
68230;BME280;55048;52.220;5.160;2023-07-31T03:00:59;100649.66;;;17.79;100.00
68230;BME280;55048;52.220;5.160;2023-07-31T03:03:25;100679.59;;;17.96;100.00
68230;BME280;55048;52.220;5.160;2023-07-31T03:05:51;100682.69;;;18.03;100.00
68230;BME280;55048;52.220;5.160;2023-07-31T03:08:16;100536.06;;;17.01;100.00
68230;BME280;55048;52.220;5.160;2023-07-31T03:10:42;100607.59;;;17.45;100.00
68230;BME280;55048;52.220;5.160;2023-07-31T03:13:07;100694.41;;;18.13;100.00
68230;BME280;55048;52.220;5.160;2023-07-31T03:15:33;100700.03;;;18.16;100.00
68230;BME280;55048;52.220;5.160;2023-07-31T03:17:58;100687.84;;;18.00;100.00
68230;BME280;55048;52.220;5.160;2023-07-31T03:20:23;100656.66;;;17.80;100.00
68230;BME280;55048;52.220;5.160;2023-07-31T03:22:49;100672.16;;;17.88;100.00
68230;BME280;55048;52.220;5.160;2023-07-31T03:25:14;100644.78;;;17.81;100.00
68230;BME280;55048;52.220;5.160;2023-07-31T03:27:40;100617.69;;;17.53;100.00
68230;BME280;55048;52.220;5.160;2023-07-31T03:30:06;100653.22;;;17.74;100.00
68230;BME280;55048;52.220;5.160;2023-07-31T03:32:32;100616.88;;;17.53;100.00
68230;BME280;55048;52.220;5.160;2023-07-31T03:34:57;100655.56;;;17.81;100.00
68230;BME280;55048;52.220;5.160;2023-07-31T03:37:24;100652.84;;;17.81;100.00
68230;BME280;55048;52.220;5.160;2023-07-31T03:39:49;100665.69;;;17.89;100.00
68230;BME280;55048;52.220;5.160;2023-07-31T03:42:16;100653.31;;;17.88;100.00
68230;BME280;55048;52.220;5.160;2023-07-31T03:44:41;100656.38;;;17.81;100.00
68230;BME280;55048;52.220;5.160;2023-07-31T03:47:08;100644.00;;;17.80;100.00
68230;BME280;55048;52.220;5.160;2023-07-31T03:49:35;100572.47;;;17.37;100.00
68230;BME280;55048;52.220;5.160;2023-07-31T03:52:01;100635.81;;;17.67;100.00
68230;BME280;55048;52.220;5.160;2023-07-31T03:54:26;100677.41;;;17.98;100.00
68230;BME280;55048;52.220;5.160;2023-07-31T03:56:52;100646.78;;;17.70;100.00
68230;BME280;55048;52.220;5.160;2023-07-31T03:59:17;100681.56;;;18.09;100.00
68230;BME280;55048;52.220;5.160;2023-07-31T04:01:43;100435.38;;;16.51;100.00
68230;BME280;55048;52.220;5.160;2023-07-31T04:04:08;100598.03;;;17.58;100.00
68230;BME280;55048;52.220;5.160;2023-07-31T04:06:33;100671.06;;;17.89;100.00
68230;BME280;55048;52.220;5.160;2023-07-31T04:08:59;100686.94;;;18.09;100.00
68230;BME280;55048;52.220;5.160;2023-07-31T04:11:24;100463.94;;;16.66;100.00
68230;BME280;55048;52.220;5.160;2023-07-31T04:13:50;100638.03;;;17.83;100.00
68230;BME280;55048;52.220;5.160;2023-07-31T04:16:15;100463.34;;;16.69;100.00
68230;BME280;55048;52.220;5.160;2023-07-31T04:18:40;100600.72;;;17.58;100.00
68230;BME280;55048;52.220;5.160;2023-07-31T04:21:06;100651.00;;;18.00;100.00
68230;BME280;55048;52.220;5.160;2023-07-31T04:23:31;100595.25;;;17.63;100.00
68230;BME280;55048;52.220;5.160;2023-07-31T04:25:57;100609.88;;;17.76;100.00
68230;BME280;55048;52.220;5.160;2023-07-31T04:28:22;100600.03;;;17.66;100.00
68230;BME280;55048;52.220;5.160;2023-07-31T04:30:48;100603.22;;;17.73;100.00
68230;BME280;55048;52.220;5.160;2023-07-31T04:33:13;100619.22;;;17.83;100.00
68230;BME280;55048;52.220;5.160;2023-07-31T04:35:39;100617.69;;;17.77;100.00
68230;BME280;55048;52.220;5.160;2023-07-31T04:38:04;100628.59;;;17.86;100.00
68230;BME280;55048;52.220;5.160;2023-07-31T04:40:29;100555.69;;;17.45;100.00
68230;BME280;55048;52.220;5.160;2023-07-31T04:42:55;100633.31;;;17.94;100.00
68230;BME280;55048;52.220;5.160;2023-07-31T04:45:20;100641.91;;;17.96;100.00
68230;BME280;55048;52.220;5.160;2023-07-31T04:47:46;100606.97;;;17.72;100.00
68230;BME280;55048;52.220;5.160;2023-07-31T04:50:11;100549.81;;;17.43;100.00
68230;BME280;55048;52.220;5.160;2023-07-31T04:52:37;100571.16;;;17.53;100.00
68230;BME280;55048;52.220;5.160;2023-07-31T04:55:02;100598.94;;;17.67;100.00
68230;BME280;55048;52.220;5.160;2023-07-31T04:57:28;100612.88;;;17.74;100.00
68230;BME280;55048;52.220;5.160;2023-07-31T04:59:53;100521.06;;;17.19;100.00
68230;BME280;55048;52.220;5.160;2023-07-31T05:02:19;100527.53;;;17.18;100.00
68230;BME280;55048;52.220;5.160;2023-07-31T05:04:44;100521.69;;;17.11;100.00
68230;BME280;55048;52.220;5.160;2023-07-31T05:07:10;100593.38;;;17.64;100.00
68230;BME280;55048;52.220;5.160;2023-07-31T05:09:35;100588.13;;;17.53;100.00
68230;BME280;55048;52.220;5.160;2023-07-31T05:12:00;100553.84;;;17.21;100.00
68230;BME280;55048;52.220;5.160;2023-07-31T05:14:26;100598.94;;;17.67;100.00
68230;BME280;55048;52.220;5.160;2023-07-31T05:16:51;100601.13;;;17.65;100.00
68230;BME280;55048;52.220;5.160;2023-07-31T05:19:17;100616.06;;;17.76;100.00
68230;BME280;55048;52.220;5.160;2023-07-31T05:21:43;100611.66;;;17.62;100.00
68230;BME280;55048;52.220;5.160;2023-07-31T05:24:09;100552.69;;;17.27;100.00
68230;BME280;55048;52.220;5.160;2023-07-31T05:26:35;100536.75;;;17.12;100.00
68230;BME280;55048;52.220;5.160;2023-07-31T05:29:00;100618.00;;;17.71;100.00
68230;BME280;55048;52.220;5.160;2023-07-31T05:31:26;100500.06;;;17.02;100.00
68230;BME280;55048;52.220;5.160;2023-07-31T05:33:51;100619.09;;;17.70;100.00
68230;BME280;55048;52.220;5.160;2023-07-31T05:36:17;100584.34;;;17.54;100.00
68230;BME280;55048;52.220;5.160;2023-07-31T05:38:42;100502.16;;;17.05;100.00
68230;BME280;55048;52.220;5.160;2023-07-31T05:57:14;100564.88;;;17.63;100.00
68230;BME280;55048;52.220;5.160;2023-07-31T05:59:40;100577.44;;;17.67;100.00
68230;BME280;55048;52.220;5.160;2023-07-31T06:02:05;100560.88;;;17.60;100.00
68230;BME280;55048;52.220;5.160;2023-07-31T06:04:31;100570.13;;;17.73;100.00
68230;BME280;55048;52.220;5.160;2023-07-31T06:06:56;100563.72;;;17.69;100.00
68230;BME280;55048;52.220;5.160;2023-07-31T06:09:22;100573.06;;;17.71;100.00
68230;BME280;55048;52.220;5.160;2023-07-31T06:11:47;100560.22;;;17.68;100.00
68230;BME280;55048;52.220;5.160;2023-07-31T06:14:12;100553.41;;;17.76;100.00
68230;BME280;55048;52.220;5.160;2023-07-31T06:16:38;100530.19;;;17.61;100.00
68230;BME280;55048;52.220;5.160;2023-07-31T06:19:03;100548.06;;;17.71;100.00
68230;BME280;55048;52.220;5.160;2023-07-31T06:21:29;100552.13;;;17.73;100.00
68230;BME280;55048;52.220;5.160;2023-07-31T06:23:55;100555.81;;;17.77;100.00
68230;BME280;55048;52.220;5.160;2023-07-31T06:26:20;100543.22;;;17.73;100.00
68230;BME280;55048;52.220;5.160;2023-07-31T06:28:46;100536.47;;;17.75;100.00
68230;BME280;55048;52.220;5.160;2023-07-31T06:31:11;100538.88;;;17.77;100.00
68230;BME280;55048;52.220;5.160;2023-07-31T06:33:37;100532.72;;;17.71;100.00
68230;BME280;55048;52.220;5.160;2023-07-31T06:36:02;100541.69;;;17.85;100.00
68230;BME280;55048;52.220;5.160;2023-07-31T06:38:28;100534.44;;;17.86;100.00
68230;BME280;55048;52.220;5.160;2023-07-31T06:40:53;100539.16;;;17.94;100.00
68230;BME280;55048;52.220;5.160;2023-07-31T06:43:19;100535.66;;;17.94;100.00
68230;BME280;55048;52.220;5.160;2023-07-31T06:45:44;100526.16;;;17.82;100.00
68230;BME280;55048;52.220;5.160;2023-07-31T06:48:11;100533.78;;;17.94;100.00
68230;BME280;55048;52.220;5.160;2023-07-31T06:50:36;100532.69;;;17.95;100.00
68230;BME280;55048;52.220;5.160;2023-07-31T06:53:02;100516.91;;;17.89;100.00
68230;BME280;55048;52.220;5.160;2023-07-31T06:55:27;100528.59;;;17.98;100.00
68230;BME280;55048;52.220;5.160;2023-07-31T06:57:54;100522.84;;;18.04;100.00
68230;BME280;55048;52.220;5.160;2023-07-31T07:00:21;100528.75;;;18.06;100.00
68230;BME280;55048;52.220;5.160;2023-07-31T07:02:47;100515.50;;;18.10;100.00
68230;BME280;55048;52.220;5.160;2023-07-31T07:05:13;100514.72;;;18.09;100.00
68230;BME280;55048;52.220;5.160;2023-07-31T07:07:40;100519.41;;;18.18;100.00
68230;BME280;55048;52.220;5.160;2023-07-31T07:10:05;100522.63;;;18.20;100.00
68230;BME280;55048;52.220;5.160;2023-07-31T07:12:32;100522.00;;;18.23;100.00
68230;BME280;55048;52.220;5.160;2023-07-31T07:14:58;100519.03;;;18.24;100.00
68230;BME280;55048;52.220;5.160;2023-07-31T07:17:24;100515.81;;;18.22;100.00
68230;BME280;55048;52.220;5.160;2023-07-31T07:19:50;100503.47;;;18.21;100.00
68230;BME280;55048;52.220;5.160;2023-07-31T07:22:16;100513.44;;;18.21;100.00
68230;BME280;55048;52.220;5.160;2023-07-31T07:24:41;100515.47;;;18.29;100.00
68230;BME280;55048;52.220;5.160;2023-07-31T07:27:06;100502.66;;;18.21;100.00
68230;BME280;55048;52.220;5.160;2023-07-31T07:29:33;100519.03;;;18.24;100.00
68230;BME280;55048;52.220;5.160;2023-07-31T07:31:59;100511.44;;;18.26;100.00
68230;BME280;55048;52.220;5.160;2023-07-31T07:34:28;100518.84;;;18.34;100.00
68230;BME280;55048;52.220;5.160;2023-07-31T07:36:54;100503.59;;;18.30;100.00
68230;BME280;55048;52.220;5.160;2023-07-31T07:39:19;100496.91;;;18.27;100.00
68230;BME280;55048;52.220;5.160;2023-07-31T07:41:45;100521.06;;;18.46;100.00
68230;BME280;55048;52.220;5.160;2023-07-31T07:44:12;100511.81;;;18.52;100.00
68230;BME280;55048;52.220;5.160;2023-07-31T07:46:37;100511.03;;;18.52;100.00
68230;BME280;55048;52.220;5.160;2023-07-31T07:49:03;100500.25;;;18.52;100.00
68230;BME280;55048;52.220;5.160;2023-07-31T07:51:28;100489.94;;;18.40;100.00
68230;BME280;55048;52.220;5.160;2023-07-31T07:53:56;100495.13;;;18.50;100.00
68230;BME280;55048;52.220;5.160;2023-07-31T07:56:21;100491.97;;;18.48;100.00
68230;BME280;55048;52.220;5.160;2023-07-31T07:58:49;100491.16;;;18.48;100.00
68230;BME280;55048;52.220;5.160;2023-07-31T08:01:15;100491.56;;;18.55;100.00
68230;BME280;55048;52.220;5.160;2023-07-31T08:03:41;100494.06;;;18.65;100.00
68230;BME280;55048;52.220;5.160;2023-07-31T08:06:06;100498.19;;;18.76;100.00
68230;BME280;55048;52.220;5.160;2023-07-31T08:08:34;100495.88;;;18.70;100.00
68230;BME280;55048;52.220;5.160;2023-07-31T08:11:00;100488.22;;;18.77;100.00
68230;BME280;55048;52.220;5.160;2023-07-31T08:13:25;100498.00;;;18.86;100.00
68230;BME280;55048;52.220;5.160;2023-07-31T08:15:50;100479.34;;;18.76;100.00
68230;BME280;55048;52.220;5.160;2023-07-31T08:18:16;100476.97;;;18.75;100.00
68230;BME280;55048;52.220;5.160;2023-07-31T08:20:42;100479.72;;;18.83;100.00
68230;BME280;55048;52.220;5.160;2023-07-31T08:23:09;100468.56;;;18.76;100.00
68230;BME280;55048;52.220;5.160;2023-07-31T08:25:35;100492.22;;;18.93;100.00
68230;BME280;55048;52.220;5.160;2023-07-31T08:28:01;100477.13;;;18.92;100.00
68230;BME280;55048;52.220;5.160;2023-07-31T08:30:26;100489.59;;;19.02;100.00
68230;BME280;55048;52.220;5.160;2023-07-31T08:32:52;100478.81;;;19.02;100.00
68230;BME280;55048;52.220;5.160;2023-07-31T08:35:17;100469.84;;;18.93;100.00
68230;BME280;55048;52.220;5.160;2023-07-31T08:37:43;100471.03;;;19.00;100.00
68230;BME280;55048;52.220;5.160;2023-07-31T08:40:09;100457.09;;;18.84;100.00
68230;BME280;55048;52.220;5.160;2023-07-31T08:42:43;100482.41;;;19.11;100.00
68230;BME280;55048;52.220;5.160;2023-07-31T08:45:09;100471.81;;;19.15;100.00
68230;BME280;55048;52.220;5.160;2023-07-31T08:47:35;100476.63;;;19.18;100.00
68230;BME280;55048;52.220;5.160;2023-07-31T08:50:01;100476.41;;;19.14;100.00
68230;BME280;55048;52.220;5.160;2023-07-31T08:52:27;100472.31;;;19.17;100.00
68230;BME280;55048;52.220;5.160;2023-07-31T08:54:52;100481.38;;;19.21;100.00
68230;BME280;55048;52.220;5.160;2023-07-31T08:57:18;100472.00;;;19.18;100.00
68230;BME280;55048;52.220;5.160;2023-07-31T08:59:45;100468.09;;;19.24;100.00
68230;BME280;55048;52.220;5.160;2023-07-31T09:02:11;100474.06;;;19.35;100.00
68230;BME280;55048;52.220;5.160;2023-07-31T09:04:40;100473.34;;;19.43;100.00
68230;BME280;55048;52.220;5.160;2023-07-31T09:07:06;100478.72;;;19.43;100.00
68230;BME280;55048;52.220;5.160;2023-07-31T09:09:32;100471.97;;;19.32;100.00
68230;BME280;55048;52.220;5.160;2023-07-31T09:11:58;100474.88;;;19.35;100.00
68230;BME280;55048;52.220;5.160;2023-07-31T09:14:25;100474.69;;;19.32;100.00
68230;BME280;55048;52.220;5.160;2023-07-31T09:16:55;100468.09;;;19.24;100.00
68230;BME280;55048;52.220;5.160;2023-07-31T09:19:26;100472.59;;;19.29;100.00
68230;BME280;55048;52.220;5.160;2023-07-31T09:21:51;100460.00;;;19.24;100.00
68230;BME280;55048;52.220;5.160;2023-07-31T09:24:31;100457.63;;;19.23;100.00
68230;BME280;55048;52.220;5.160;2023-07-31T09:26:58;100466.28;;;19.33;100.00
68230;BME280;55048;52.220;5.160;2023-07-31T09:29:24;100467.31;;;19.24;100.00
68230;BME280;55048;52.220;5.160;2023-07-31T09:31:52;100469.28;;;19.32;100.00
68230;BME280;55048;52.220;5.160;2023-07-31T09:34:17;100449.13;;;19.16;100.00
68230;BME280;55048;52.220;5.160;2023-07-31T09:36:48;100446.66;;;19.19;100.00
68230;BME280;55048;52.220;5.160;2023-07-31T09:39:15;100467.00;;;19.25;100.00
68230;BME280;55048;52.220;5.160;2023-07-31T09:41:53;100448.84;;;19.17;100.00
68230;BME280;55048;52.220;5.160;2023-07-31T09:44:19;100449.44;;;19.28;100.00
68230;BME280;55048;52.220;5.160;2023-07-31T09:46:45;100446.34;;;19.21;100.00
68230;BME280;55048;52.220;5.160;2023-07-31T09:49:12;100465.38;;;19.38;100.00
68230;BME280;55048;52.220;5.160;2023-07-31T09:51:38;100455.59;;;19.28;100.00
68230;BME280;55048;52.220;5.160;2023-07-31T09:54:15;100466.41;;;19.28;100.00
68230;BME280;55048;52.220;5.160;2023-07-31T09:56:48;100468.41;;;19.23;100.00
68230;BME280;55048;52.220;5.160;2023-07-31T09:59:19;100461.31;;;19.27;100.00
68230;BME280;55048;52.220;5.160;2023-07-31T10:01:45;100469.97;;;19.37;100.00
68230;BME280;55048;52.220;5.160;2023-07-31T10:04:12;100459.72;;;19.26;100.00
68230;BME280;55048;52.220;5.160;2023-07-31T10:06:39;100460.50;;;19.40;100.00
68230;BME280;55048;52.220;5.160;2023-07-31T10:09:08;100464.97;;;19.45;100.00
68230;BME280;55048;52.220;5.160;2023-07-31T10:11:38;100457.03;;;19.48;100.00
68230;BME280;55048;52.220;5.160;2023-07-31T10:14:07;100455.34;;;19.52;100.00
68230;BME280;55048;52.220;5.160;2023-07-31T10:16:34;100443.88;;;19.47;100.00
68230;BME280;55048;52.220;5.160;2023-07-31T10:19:00;100454.84;;;19.50;100.00
68230;BME280;55048;52.220;5.160;2023-07-31T10:21:27;100437.56;;;19.51;100.00
68230;BME280;55048;52.220;5.160;2023-07-31T10:23:53;100446.13;;;19.53;100.00
68230;BME280;55048;52.220;5.160;2023-07-31T10:26:19;100455.72;;;19.59;100.00
68230;BME280;55048;52.220;5.160;2023-07-31T10:28:46;100453.84;;;19.60;100.00
68230;BME280;55048;52.220;5.160;2023-07-31T10:31:13;100450.31;;;19.59;100.00
68230;BME280;55048;52.220;5.160;2023-07-31T10:33:39;100453.41;;;19.67;100.00
68230;BME280;55048;52.220;5.160;2023-07-31T10:36:17;100455.50;;;19.70;100.00
68230;BME280;55048;52.220;5.160;2023-07-31T10:38:43;100440.72;;;19.67;100.00
68230;BME280;55048;52.220;5.160;2023-07-31T10:41:09;100448.06;;;19.75;100.00
68230;BME280;55048;52.220;5.160;2023-07-31T10:43:36;100455.06;;;19.76;100.00
68230;BME280;55048;52.220;5.160;2023-07-31T10:46:11;100450.91;;;19.70;100.00
68230;BME280;55048;52.220;5.160;2023-07-31T10:48:38;100454.72;;;19.69;100.00
68230;BME280;55048;52.220;5.160;2023-07-31T10:51:10;100459.78;;;19.71;100.00
68230;BME280;55048;52.220;5.160;2023-07-31T10:53:37;100466.16;;;19.75;100.00
68230;BME280;55048;52.220;5.160;2023-07-31T10:56:05;100453.53;;;19.61;100.00
68230;BME280;55048;52.220;5.160;2023-07-31T10:58:32;100449.94;;;19.52;100.00
68230;BME280;55048;52.220;5.160;2023-07-31T11:00:59;100453.31;;;19.58;100.00
68230;BME280;55048;52.220;5.160;2023-07-31T11:03:27;100454.19;;;19.67;100.00
68230;BME280;55048;52.220;5.160;2023-07-31T11:06:05;100445.75;;;19.60;100.00
68230;BME280;55048;52.220;5.160;2023-07-31T11:08:32;100454.19;;;19.67;100.00
68230;BME280;55048;52.220;5.160;2023-07-31T11:13:26;100459.06;;;19.79;100.00
68230;BME280;55048;52.220;5.160;2023-07-31T11:15:52;100450.66;;;19.80;100.00
68230;BME280;55048;52.220;5.160;2023-07-31T11:18:17;100448.63;;;19.86;100.00
68230;BME280;55048;52.220;5.160;2023-07-31T11:20:43;100454.72;;;19.92;100.00
68230;BME280;55048;52.220;5.160;2023-07-31T11:23:10;100444.53;;;19.88;100.00
68230;BME280;55048;52.220;5.160;2023-07-31T11:25:39;100454.19;;;19.90;100.00
68230;BME280;55048;52.220;5.160;2023-07-31T11:28:09;100435.94;;;19.86;100.00
68230;BME280;55048;52.220;5.160;2023-07-31T11:30:35;100452.03;;;20.00;100.00
68230;BME280;55048;52.220;5.160;2023-07-31T11:33:02;100433.78;;;19.97;100.00
68230;BME280;55048;52.220;5.160;2023-07-31T11:35:32;100438.72;;;20.04;100.00
68230;BME280;55048;52.220;5.160;2023-07-31T11:37:59;100439.56;;;20.13;100.00
68230;BME280;55048;52.220;5.160;2023-07-31T11:40:24;100425.28;;;20.12;100.00
68230;BME280;55048;52.220;5.160;2023-07-31T11:43:04;100444.69;;;20.23;100.00
68230;BME280;55048;52.220;5.160;2023-07-31T11:45:31;100447.81;;;20.08;100.00
68230;BME280;55048;52.220;5.160;2023-07-31T11:47:57;100435.41;;;20.07;100.00
68230;BME280;55048;52.220;5.160;2023-07-31T11:50:23;100427.94;;;20.04;100.00
68230;BME280;55048;52.220;5.160;2023-07-31T11:52:54;100417.88;;;19.96;100.00
68230;BME280;55048;52.220;5.160;2023-07-31T11:55:21;100426.28;;;19.94;100.00
68230;BME280;55048;52.220;5.160;2023-07-31T11:57:46;100426.34;;;20.03;100.00
68230;BME280;55048;52.220;5.160;2023-07-31T12:00:13;100428.78;;;20.13;100.00
68230;BME280;55048;52.220;5.160;2023-07-31T12:02:40;100440.59;;;20.26;100.00
68230;BME280;55048;52.220;5.160;2023-07-31T12:05:14;100435.50;;;20.24;100.00
68230;BME280;55048;52.220;5.160;2023-07-31T12:07:58;100447.44;;;20.32;100.00
68230;BME280;55048;52.220;5.160;2023-07-31T12:10:32;100433.88;;;20.15;100.00
68230;BME280;55048;52.220;5.160;2023-07-31T12:13:12;100446.13;;;20.21;100.00
68230;BME280;55048;52.220;5.160;2023-07-31T12:15:45;100448.19;;;20.15;100.00
68230;BME280;55048;52.220;5.160;2023-07-31T12:18:12;100446.00;;;20.26;100.00
68230;BME280;55048;52.220;5.160;2023-07-31T12:20:46;100447.09;;;20.25;100.00
68230;BME280;55048;52.220;5.160;2023-07-31T12:23:14;100439.94;;;20.20;100.00
68230;BME280;55048;52.220;5.160;2023-07-31T12:25:40;100437.84;;;20.17;100.00
68230;BME280;55048;52.220;5.160;2023-07-31T12:28:07;100429.56;;;20.13;100.00
68230;BME280;55048;52.220;5.160;2023-07-31T12:30:38;100428.16;;;20.16;100.00
68230;BME280;55048;52.220;5.160;2023-07-31T12:33:05;100416.13;;;20.22;100.00
68230;BME280;55048;52.220;5.160;2023-07-31T12:35:40;100412.97;;;20.29;100.00
68230;BME280;55048;52.220;5.160;2023-07-31T12:38:06;100407.91;;;20.36;100.00
68230;BME280;55048;52.220;5.160;2023-07-31T12:40:32;100407.06;;;20.27;100.00
68230;BME280;55048;52.220;5.160;2023-07-31T12:43:00;100409.03;;;20.35;100.00
68230;BME280;55048;52.220;5.160;2023-07-31T12:45:27;100404.56;;;20.30;100.00
68230;BME280;55048;52.220;5.160;2023-07-31T12:47:53;100403.13;;;20.33;100.00
68230;BME280;55048;52.220;5.160;2023-07-31T12:50:18;100398.41;;;20.38;100.00
68230;BME280;55048;52.220;5.160;2023-07-31T12:52:43;100404.00;;;20.51;100.00
68230;BME280;55048;52.220;5.160;2023-07-31T12:55:09;100388.44;;;20.48;100.00
68230;BME280;55048;52.220;5.160;2023-07-31T12:57:36;100399.91;;;20.53;100.00
68230;BME280;55048;52.220;5.160;2023-07-31T13:00:02;100394.00;;;20.51;100.00
68230;BME280;55048;52.220;5.160;2023-07-31T13:02:28;100404.69;;;20.56;100.00
68230;BME280;55048;52.220;5.160;2023-07-31T13:04:53;100400.88;;;20.57;100.00